createdAt,value
2023-02-22T00:01:28.695Z,4.76
2023-02-22T00:03:00.726Z,4.81
2023-02-22T00:04:35.852Z,4.83
2023-02-22T00:06:08.168Z,4.87
2023-02-22T00:07:40.154Z,4.86
2023-02-22T00:09:12.229Z,4.84
2023-02-22T00:10:44.943Z,4.89
2023-02-22T00:12:16.920Z,4.90
2023-02-22T00:13:50.836Z,4.94
2023-02-22T00:15:27.595Z,4.97
2023-02-22T00:17:00.105Z,4.88
2023-02-22T00:18:32.223Z,4.87
2023-02-22T00:20:07.032Z,4.87
2023-02-22T00:21:38.960Z,4.84
2023-02-22T00:23:16.903Z,4.80
2023-02-22T00:24:49.030Z,4.82
2023-02-22T00:26:23.764Z,4.84
2023-02-22T00:27:56.557Z,4.85
2023-02-22T00:29:28.971Z,4.88
2023-02-22T00:31:00.980Z,4.90
2023-02-22T00:32:33.350Z,4.94
2023-02-22T00:34:05.484Z,4.90
2023-02-22T00:35:37.426Z,4.89
2023-02-22T00:37:11.391Z,4.86
2023-02-22T00:38:43.453Z,4.82
2023-02-22T00:40:19.507Z,4.89
2023-02-22T00:41:51.546Z,4.84
2023-02-22T00:43:26.735Z,4.87
2023-02-22T00:44:58.737Z,4.93
2023-02-22T00:46:30.759Z,4.82
2023-02-22T00:48:06.623Z,4.74
2023-02-22T00:49:39.348Z,4.61
2023-02-22T00:51:11.426Z,4.57
2023-02-22T00:52:43.409Z,4.51
2023-02-22T00:54:17.459Z,4.52
2023-02-22T00:55:49.726Z,4.59
2023-02-22T00:57:22.523Z,4.68
2023-02-22T00:58:54.552Z,4.76
2023-02-22T01:00:28.324Z,4.87
2023-02-22T01:02:00.380Z,4.91
2023-02-22T01:03:32.559Z,4.98
2023-02-22T01:05:05.907Z,4.99
2023-02-22T01:06:38.042Z,5.02
2023-02-22T01:08:11.493Z,4.97
2023-02-22T01:09:44.628Z,4.96
2023-02-22T01:11:18.141Z,4.83
2023-02-22T01:12:53.126Z,4.75
2023-02-22T01:14:27.077Z,4.75
2023-02-22T01:16:01.014Z,4.69
2023-02-22T01:17:33.163Z,4.72
2023-02-22T01:19:06.585Z,4.73
2023-02-22T01:20:38.475Z,4.82
2023-02-22T01:22:11.439Z,4.79
2023-02-22T01:23:45.882Z,4.78
2023-02-22T01:25:21.218Z,4.74
2023-02-22T01:26:53.546Z,4.65
2023-02-22T01:28:25.602Z,4.55
2023-02-22T01:29:57.582Z,4.51
2023-02-22T01:31:29.652Z,4.46
2023-02-22T01:33:03.133Z,4.46
2023-02-22T01:34:35.126Z,4.53
2023-02-22T01:36:11.701Z,4.46
2023-02-22T01:37:43.678Z,4.42
2023-02-22T01:39:18.208Z,4.45
2023-02-22T01:40:51.639Z,4.38
2023-02-22T01:42:24.433Z,4.36
2023-02-22T01:43:56.366Z,4.26
2023-02-22T01:45:31.064Z,4.21
2023-02-22T01:47:05.335Z,4.12
2023-02-22T01:49:06.844Z,4.12
2023-02-22T01:50:49.537Z,4.14
2023-02-22T01:52:21.871Z,4.14
2023-02-22T01:53:57.793Z,4.24
2023-02-22T01:55:29.891Z,4.23
2023-02-22T01:57:06.661Z,4.27
2023-02-22T01:58:41.673Z,4.23
2023-02-22T02:00:17.580Z,4.26
2023-02-22T02:01:49.720Z,4.22
2023-02-22T02:03:27.752Z,4.25
2023-02-22T02:05:00.465Z,4.22
2023-02-22T02:06:34.121Z,4.19
2023-02-22T02:08:36.540Z,4.15
2023-02-22T02:10:14.714Z,4.03
2023-02-22T02:11:47.116Z,3.98
2023-02-22T02:13:19.098Z,3.93
2023-02-22T02:14:51.187Z,3.88
2023-02-22T02:16:25.269Z,3.82
2023-02-22T02:18:01.091Z,3.81
2023-02-22T02:19:57.440Z,3.81
2023-02-22T02:21:50.148Z,3.75
2023-02-22T02:23:59.005Z,3.76
2023-02-22T02:25:49.590Z,3.75
2023-02-22T02:27:29.455Z,3.72
2023-02-22T02:29:22.453Z,3.72
2023-02-22T02:31:25.027Z,3.65
2023-02-22T02:33:02.116Z,3.57
2023-02-22T02:35:00.297Z,3.57
2023-02-22T02:36:39.167Z,3.55
2023-02-22T02:38:17.748Z,3.49
2023-02-22T02:39:56.126Z,3.37
2023-02-22T02:41:35.434Z,3.39
2023-02-22T02:43:27.671Z,3.43
2023-02-22T02:45:10.343Z,3.47
2023-02-22T02:47:35.029Z,3.41
2023-02-22T02:49:11.154Z,3.19
2023-02-22T02:50:48.406Z,3.09
2023-02-22T02:52:21.592Z,3.07
2023-02-22T02:53:54.353Z,3.02
2023-02-22T02:55:26.586Z,2.97
2023-02-22T02:56:58.927Z,2.88
2023-02-22T02:58:31.061Z,2.87
2023-02-22T03:00:03.702Z,2.87
2023-02-22T03:02:04.763Z,2.91
2023-02-22T03:04:10.510Z,2.89
2023-02-22T03:06:20.273Z,2.89
2023-02-22T03:08:21.545Z,2.87
2023-02-22T03:10:13.503Z,2.94
2023-02-22T03:12:02.501Z,2.99
2023-02-22T03:13:59.046Z,3.03
2023-02-22T03:15:57.412Z,3.06
2023-02-22T03:17:54.763Z,3.01
2023-02-22T03:19:44.729Z,2.91
2023-02-22T03:21:33.846Z,2.88
2023-02-22T03:23:12.560Z,2.81
2023-02-22T03:24:53.370Z,2.78
2023-02-22T03:26:36.189Z,2.77
2023-02-22T03:28:12.088Z,2.75
2023-02-22T03:29:46.047Z,2.77
2023-02-22T03:31:24.179Z,2.83
2023-02-22T03:33:09.331Z,2.88
2023-02-22T03:34:44.498Z,2.86
2023-02-22T03:36:25.210Z,2.85
2023-02-22T03:37:58.891Z,2.76
2023-02-22T03:39:31.692Z,2.72
2023-02-22T03:41:05.287Z,2.71
2023-02-22T03:42:37.977Z,2.71
2023-02-22T03:44:12.862Z,2.68
2023-02-22T03:45:46.231Z,2.68
2023-02-22T03:47:32.357Z,2.69
2023-02-22T03:49:10.774Z,2.70
2023-02-22T03:50:43.135Z,2.68
2023-02-22T03:52:15.169Z,2.73
2023-02-22T03:53:50.069Z,2.77
2023-02-22T03:55:24.094Z,2.79
2023-02-22T03:56:58.787Z,2.74
2023-02-22T03:58:32.048Z,2.67
2023-02-22T04:00:08.468Z,2.68
2023-02-22T04:01:40.498Z,2.66
2023-02-22T04:03:12.797Z,2.62
2023-02-22T04:04:46.179Z,2.53
2023-02-22T04:06:18.242Z,2.48
2023-02-22T04:07:50.270Z,2.48
2023-02-22T04:09:22.330Z,2.45
2023-02-22T04:10:54.296Z,2.43
2023-02-22T04:12:26.312Z,2.45
2023-02-22T04:13:58.727Z,2.48
2023-02-22T04:15:30.776Z,2.53
2023-02-22T04:17:02.810Z,2.48
2023-02-22T04:18:34.841Z,2.39
2023-02-22T04:20:07.580Z,2.34
2023-02-22T04:21:39.596Z,2.23
2023-02-22T04:23:11.693Z,2.18
2023-02-22T04:24:43.678Z,2.12
2023-02-22T04:26:15.806Z,2.06
2023-02-22T04:27:48.018Z,2.01
2023-02-22T04:29:22.884Z,1.99
2023-02-22T04:30:54.976Z,1.91
2023-02-22T04:32:27.909Z,1.92
2023-02-22T04:34:01.059Z,1.88
2023-02-22T04:35:35.386Z,1.83
2023-02-22T04:37:08.105Z,1.82
2023-02-22T04:38:40.363Z,1.87
2023-02-22T04:40:12.536Z,1.95
2023-02-22T04:41:44.517Z,2.08
2023-02-22T04:43:16.702Z,2.17
2023-02-22T04:44:48.651Z,2.20
2023-02-22T04:46:20.824Z,2.23
2023-02-22T04:47:52.897Z,2.21
2023-02-22T04:49:24.949Z,2.22
2023-02-22T04:50:56.980Z,2.23
2023-02-22T04:52:29.170Z,2.21
2023-02-22T04:54:01.262Z,2.13
2023-02-22T04:55:34.421Z,2.05
2023-02-22T04:57:06.374Z,2.03
2023-02-22T04:58:38.432Z,1.96
2023-02-22T05:00:11.063Z,1.93
2023-02-22T05:01:43.100Z,1.91
2023-02-22T05:03:15.118Z,1.92
2023-02-22T05:04:47.368Z,1.95
2023-02-22T05:06:19.601Z,1.98
2023-02-22T05:07:51.697Z,2.05
2023-02-22T05:09:23.960Z,2.06
2023-02-22T05:10:56.328Z,2.10
2023-02-22T05:12:28.475Z,2.16
2023-02-22T05:14:00.672Z,2.22
2023-02-22T05:15:33.033Z,2.22
2023-02-22T05:17:05.336Z,2.20
2023-02-22T05:18:37.418Z,2.14
2023-02-22T05:20:28.234Z,2.17
2023-02-22T05:22:00.568Z,2.05
2023-02-22T05:23:33.257Z,1.97
2023-02-22T05:25:05.620Z,1.96
2023-02-22T05:26:37.712Z,1.96
2023-02-22T05:28:13.545Z,2.03
2023-02-22T05:29:45.642Z,1.94
2023-02-22T05:31:17.949Z,1.86
2023-02-22T05:32:51.505Z,1.86
2023-02-22T05:34:24.305Z,1.79
2023-02-22T05:35:56.552Z,1.84
2023-02-22T05:37:28.624Z,1.90
2023-02-22T05:39:00.649Z,1.99
2023-02-22T05:40:33.242Z,2.09
2023-02-22T05:42:05.380Z,2.16
2023-02-22T05:43:38.285Z,2.22
2023-02-22T05:45:16.343Z,2.36
2023-02-22T05:46:48.479Z,2.36
2023-02-22T05:48:22.640Z,2.35
2023-02-22T05:49:54.809Z,2.39
2023-02-22T05:51:26.886Z,2.41
2023-02-22T05:52:59.196Z,2.45
2023-02-22T05:54:31.216Z,2.49
2023-02-22T05:56:03.309Z,2.59
2023-02-22T05:57:35.525Z,2.70
2023-02-22T05:59:07.588Z,2.79
2023-02-22T06:00:39.661Z,2.87
2023-02-22T06:02:11.683Z,2.96
2023-02-22T06:03:46.503Z,3.09
2023-02-22T06:05:18.746Z,3.15
2023-02-22T06:06:50.954Z,3.26
2023-02-22T06:08:23.005Z,3.38
2023-02-22T06:09:55.038Z,3.44
2023-02-22T06:11:27.115Z,3.53
2023-02-22T06:13:00.518Z,3.61
2023-02-22T06:14:32.565Z,3.65
2023-02-22T06:16:04.907Z,3.73
2023-02-22T06:17:37.141Z,3.83
2023-02-22T06:19:09.328Z,3.95
2023-02-22T06:20:41.735Z,4.07
2023-02-22T06:22:19.121Z,4.22
2023-02-22T06:23:51.111Z,4.30
2023-02-22T06:25:25.960Z,4.41
2023-02-22T06:27:00.989Z,4.56
2023-02-22T06:28:32.943Z,4.65
2023-02-22T06:30:05.739Z,4.78
2023-02-22T06:31:37.888Z,4.89
2023-02-22T06:33:11.094Z,5.03
2023-02-22T06:34:43.107Z,5.12
2023-02-22T06:36:15.100Z,5.22
2023-02-22T06:37:47.223Z,5.36
2023-02-22T06:39:19.480Z,5.50
2023-02-22T06:40:52.115Z,5.61
2023-02-22T06:42:24.833Z,5.77
2023-02-22T06:43:56.953Z,5.87
2023-02-22T06:45:29.031Z,6.01
2023-02-22T06:47:01.209Z,6.13
2023-02-22T06:48:33.340Z,6.27
2023-02-22T06:50:05.706Z,6.41
2023-02-22T06:51:38.907Z,6.58
2023-02-22T06:53:11.010Z,6.67
2023-02-22T06:54:43.878Z,6.82
2023-02-22T06:56:16.016Z,6.91
2023-02-22T06:57:48.273Z,7.05
2023-02-22T06:59:20.339Z,7.17
2023-02-22T07:00:52.419Z,7.29
2023-02-22T07:02:24.889Z,7.46
2023-02-22T07:03:57.327Z,7.60
2023-02-22T07:05:29.534Z,7.72
2023-02-22T07:07:01.628Z,7.86
2023-02-22T07:08:33.868Z,7.98
2023-02-22T07:10:08.538Z,8.15
2023-02-22T07:11:40.805Z,8.25
2023-02-22T07:13:12.952Z,8.44
2023-02-22T07:14:45.003Z,8.63
2023-02-22T07:16:17.210Z,8.89
2023-02-22T07:17:49.515Z,9.08
2023-02-22T07:19:21.591Z,9.24
2023-02-22T07:20:54.766Z,9.38
2023-02-22T07:22:27.038Z,9.49
2023-02-22T07:24:02.228Z,9.63
2023-02-22T07:25:35.928Z,9.77
2023-02-22T07:27:07.939Z,9.91
2023-02-22T07:28:39.893Z,10.09
2023-02-22T07:30:31.532Z,10.33
2023-02-22T07:32:03.771Z,10.65
2023-02-22T07:33:35.958Z,11.07
2023-02-22T07:35:25.250Z,11.36
2023-02-22T07:36:57.220Z,11.61
2023-02-22T07:38:29.288Z,11.93
2023-02-22T07:40:01.349Z,12.19
2023-02-22T07:41:33.322Z,12.32
2023-02-22T07:43:07.194Z,12.46
2023-02-22T07:44:39.399Z,12.58
2023-02-22T07:46:11.512Z,12.71
2023-02-22T07:47:43.531Z,12.81
2023-02-22T07:49:15.756Z,12.94
2023-02-22T07:50:48.065Z,13.03
2023-02-22T07:52:20.235Z,13.14
2023-02-22T07:53:52.493Z,13.22
2023-02-22T07:55:26.779Z,13.33
2023-02-22T07:56:58.847Z,13.44
2023-02-22T07:58:31.996Z,13.59
2023-02-22T08:00:04.670Z,13.74
2023-02-22T08:01:37.535Z,13.85
2023-02-22T08:03:13.438Z,13.93
2023-02-22T08:04:45.497Z,13.99
2023-02-22T08:06:18.183Z,14.06
2023-02-22T08:07:50.432Z,14.15
2023-02-22T08:09:23.978Z,14.27
2023-02-22T08:10:56.401Z,14.35
2023-02-22T08:12:28.503Z,14.36
2023-02-22T08:14:00.708Z,14.44
2023-02-22T08:15:35.445Z,14.58
2023-02-22T08:17:08.837Z,14.63
2023-02-22T08:18:41.408Z,14.71
2023-02-22T08:20:13.992Z,14.76
2023-02-22T08:21:45.974Z,14.73
2023-02-22T08:23:19.541Z,14.83
2023-02-22T08:24:54.598Z,14.78
2023-02-22T08:26:26.799Z,14.90
2023-02-22T08:28:09.170Z,15.03
2023-02-22T08:29:41.305Z,15.04
2023-02-22T08:31:13.440Z,15.10
2023-02-22T08:32:47.222Z,15.17
2023-02-22T08:34:19.334Z,15.20
2023-02-22T08:35:52.131Z,15.25
2023-02-22T08:37:24.267Z,15.25
2023-02-22T08:38:56.306Z,15.32
2023-02-22T08:40:34.222Z,15.42
2023-02-22T08:42:06.717Z,15.48
2023-02-22T08:43:38.780Z,15.50
2023-02-22T08:45:11.877Z,15.59
2023-02-22T08:46:44.060Z,15.67
2023-02-22T08:48:17.365Z,15.69
2023-02-22T08:49:49.444Z,15.73
2023-02-22T08:51:21.768Z,15.74
2023-02-22T08:52:55.453Z,15.80
2023-02-22T08:54:27.511Z,15.82
2023-02-22T08:55:59.578Z,15.91
2023-02-22T08:57:32.216Z,15.98
2023-02-22T08:59:04.318Z,16.04
2023-02-22T09:00:39.162Z,16.06
2023-02-22T09:02:18.170Z,16.12
2023-02-22T09:03:50.833Z,16.07
2023-02-22T09:05:23.042Z,16.14
2023-02-22T09:06:55.205Z,16.18
2023-02-22T09:08:27.330Z,16.23
2023-02-22T09:09:59.558Z,16.24
2023-02-22T09:11:34.724Z,16.33
2023-02-22T09:13:06.904Z,16.28
2023-02-22T09:14:38.941Z,16.31
2023-02-22T09:16:11.061Z,16.38
2023-02-22T09:17:43.078Z,16.44
2023-02-22T09:19:15.053Z,16.44
2023-02-22T09:20:47.045Z,16.52
2023-02-22T09:22:19.115Z,16.48
2023-02-22T09:23:51.148Z,16.53
2023-02-22T09:25:24.213Z,16.62
2023-02-22T09:26:56.712Z,16.68
2023-02-22T09:28:29.291Z,16.77
2023-02-22T09:30:01.379Z,16.83
2023-02-22T09:31:39.242Z,16.91
2023-02-22T09:33:14.052Z,16.85
2023-02-22T09:34:47.407Z,16.87
2023-02-22T09:36:22.191Z,16.92
2023-02-22T09:37:56.164Z,16.87
2023-02-22T09:39:28.280Z,16.87
2023-02-22T09:41:14.411Z,16.98
2023-02-22T09:42:57.546Z,17.03
2023-02-22T09:44:38.481Z,17.11
2023-02-22T09:46:19.895Z,17.16
2023-02-22T09:48:08.040Z,17.17
2023-02-22T09:50:16.092Z,17.19
2023-02-22T09:52:05.344Z,17.24
2023-02-22T09:53:42.136Z,17.21
2023-02-22T09:55:41.533Z,17.33
2023-02-22T09:57:22.244Z,17.40
2023-02-22T09:59:04.007Z,17.44
2023-02-22T10:00:38.352Z,17.42
2023-02-22T10:02:32.482Z,17.48
2023-02-22T10:04:20.778Z,17.51
2023-02-22T10:06:05.656Z,17.53
2023-02-22T10:07:55.763Z,17.49
2023-02-22T10:09:30.721Z,17.55
2023-02-22T10:11:17.754Z,17.60
2023-02-22T10:13:29.342Z,17.59
2023-02-22T10:15:30.561Z,17.59
2023-02-22T10:17:14.917Z,17.64
2023-02-22T10:19:08.771Z,17.59
2023-02-22T10:20:57.750Z,17.59
2023-02-22T10:22:38.648Z,17.68
2023-02-22T10:24:40.358Z,17.73
2023-02-22T10:26:12.739Z,17.73
2023-02-22T10:27:57.627Z,17.76
2023-02-22T10:29:40.297Z,17.88
2023-02-22T10:31:21.265Z,17.90
2023-02-22T10:33:05.736Z,17.93
2023-02-22T10:34:41.898Z,17.92
2023-02-22T10:36:20.397Z,17.92
2023-02-22T10:37:56.831Z,17.94
2023-02-22T10:39:33.547Z,17.98
2023-02-22T10:41:31.279Z,17.96
2023-02-22T10:43:05.112Z,17.94
2023-02-22T10:44:38.766Z,17.92
2023-02-22T10:46:21.609Z,17.91
2023-02-22T10:47:59.274Z,17.96
2023-02-22T10:49:36.626Z,18.00
2023-02-22T10:51:09.980Z,18.00
2023-02-22T10:52:41.894Z,18.09
2023-02-22T10:54:13.942Z,18.02
2023-02-22T10:56:22.233Z,17.99
2023-02-22T10:58:04.972Z,18.05
2023-02-22T10:59:39.581Z,18.08
2023-02-22T11:01:37.435Z,18.14
2023-02-22T11:03:21.244Z,18.09
2023-02-22T11:04:53.946Z,18.12
2023-02-22T11:06:26.221Z,18.11
2023-02-22T11:08:22.893Z,18.07
2023-02-22T11:10:00.261Z,18.04
2023-02-22T11:11:32.695Z,18.12
2023-02-22T11:13:18.811Z,18.12
2023-02-22T11:14:50.919Z,18.20
2023-02-22T11:16:41.358Z,18.31
2023-02-22T11:18:26.316Z,18.34
2023-02-22T11:19:59.518Z,18.25
2023-02-22T11:21:32.960Z,18.33
2023-02-22T11:23:06.028Z,18.27
2023-02-22T11:24:58.528Z,18.28
2023-02-22T11:26:38.902Z,18.34
2023-02-22T11:28:15.351Z,18.33
2023-02-22T11:29:51.170Z,18.30
2023-02-22T11:31:28.835Z,18.44
2023-02-22T11:33:17.749Z,18.52
2023-02-22T11:35:03.525Z,18.41
2023-02-22T11:36:42.913Z,18.43
2023-02-22T11:38:21.418Z,18.29
2023-02-22T11:40:07.380Z,18.35
2023-02-22T11:41:39.420Z,18.28
2023-02-22T11:43:19.351Z,18.27
2023-02-22T11:45:23.951Z,18.34
2023-02-22T11:46:57.636Z,18.36
2023-02-22T11:48:39.436Z,18.30
2023-02-22T11:50:30.724Z,18.38
2023-02-22T11:52:17.761Z,18.33
2023-02-22T11:53:59.808Z,18.32
2023-02-22T11:55:42.693Z,18.34
2023-02-22T11:57:24.755Z,18.43
2023-02-22T11:59:08.576Z,18.39
2023-02-22T12:00:54.276Z,18.38
2023-02-22T12:02:29.172Z,18.35
2023-02-22T12:04:22.769Z,18.37
2023-02-22T12:06:19.813Z,18.45
2023-02-22T12:08:13.873Z,18.54
2023-02-22T12:09:58.246Z,18.65
2023-02-22T12:11:45.458Z,18.72
2023-02-22T12:13:18.205Z,18.70
2023-02-22T12:14:58.850Z,18.63
2023-02-22T12:17:08.156Z,18.75
2023-02-22T12:19:07.682Z,18.89
2023-02-22T12:20:48.049Z,18.87
2023-02-22T12:22:26.476Z,18.83
2023-02-22T12:24:20.446Z,18.90
2023-02-22T12:26:11.844Z,18.91
2023-02-22T12:27:49.616Z,18.93
2023-02-22T12:29:42.136Z,18.75
2023-02-22T12:31:21.343Z,18.86
2023-02-22T12:32:54.486Z,18.93
2023-02-22T12:34:49.184Z,19.00
2023-02-22T12:36:26.153Z,19.07
2023-02-22T12:38:07.236Z,19.11
2023-02-22T12:40:01.199Z,19.15
2023-02-22T12:41:59.444Z,19.05
2023-02-22T12:43:41.593Z,18.76
2023-02-22T12:45:21.743Z,18.84
2023-02-22T12:46:57.009Z,18.90
2023-02-22T12:48:40.916Z,19.04
2023-02-22T12:50:24.205Z,19.08
2023-02-22T12:52:20.838Z,19.08
2023-02-22T12:54:05.799Z,19.04
2023-02-22T12:55:45.996Z,19.14
2023-02-22T12:57:24.141Z,19.02
2023-02-22T12:59:03.234Z,18.75
2023-02-22T13:00:40.848Z,18.42
2023-02-22T13:02:27.830Z,18.38
2023-02-22T13:04:05.849Z,18.31
2023-02-22T13:05:45.511Z,18.56
2023-02-22T13:07:36.368Z,18.57
2023-02-22T13:09:24.868Z,18.69
2023-02-22T13:11:20.768Z,18.84
2023-02-22T13:13:11.385Z,18.85
2023-02-22T13:14:55.370Z,18.81
2023-02-22T13:16:37.708Z,18.58
2023-02-22T13:18:32.819Z,18.49
2023-02-22T13:20:30.021Z,18.44
2023-02-22T13:22:30.239Z,18.57
2023-02-22T13:24:16.080Z,18.66
2023-02-22T13:25:58.423Z,18.47
2023-02-22T13:27:54.828Z,18.40
2023-02-22T13:29:39.548Z,18.41
2023-02-22T13:31:23.673Z,18.43
2023-02-22T13:33:21.147Z,18.32
2023-02-22T13:35:07.953Z,18.38
2023-02-22T13:37:02.036Z,18.51
2023-02-22T13:38:55.782Z,18.63
2023-02-22T13:40:42.917Z,18.66
2023-02-22T13:42:18.035Z,18.51
2023-02-22T13:44:03.625Z,18.46
2023-02-22T13:45:44.705Z,18.34
2023-02-22T13:47:29.040Z,18.22
2023-02-22T13:49:19.473Z,18.15
2023-02-22T13:51:42.296Z,18.11
2023-02-22T13:53:30.125Z,18.18
2023-02-22T13:55:11.411Z,18.25
2023-02-22T13:56:44.858Z,18.16
2023-02-22T13:58:17.111Z,18.26
2023-02-22T13:59:49.425Z,18.27
2023-02-22T14:01:41.461Z,18.40
2023-02-22T14:03:13.534Z,18.28
2023-02-22T14:04:45.643Z,18.19
2023-02-22T14:06:36.943Z,18.16
2023-02-22T14:08:19.170Z,18.16
2023-02-22T14:09:59.518Z,18.15
2023-02-22T14:11:31.543Z,18.14
2023-02-22T14:13:10.047Z,18.20
2023-02-22T14:15:27.740Z,18.20
2023-02-22T14:17:26.651Z,18.33
2023-02-22T14:19:25.457Z,18.39
2023-02-22T14:21:16.521Z,18.40
2023-02-22T14:22:53.299Z,18.22
2023-02-22T14:24:25.739Z,18.08
2023-02-22T14:26:12.115Z,17.91
2023-02-22T14:27:44.332Z,17.91
2023-02-22T14:29:18.614Z,17.96
2023-02-22T14:30:50.726Z,18.04
